• Join FlightAware (Why Join?)
  • Login
  • US Flag 
12:26AM EDT


 

Airport Tracker/Info


-or-


 

Live Flight TrackerFlight Track Log ✈ UAL4305 ✈ 13-Apr-2013 ✈ KCLL - KIAH

Flight Track Log - Related Links

Times and Time Zones

All times are in EDT time to prevent confusion due to time zone crossing. See the UAL4305 flight status page for this flight to view local times or setup timezone preferences in your user account.

Time Position Orientation Groundspeed Altitude Reporting Facility
EDT Latitude Longitude Course Direction KTS MPH feet Rate Location/Type
08:11AM 30.5686 -96.3564 164° South 192 221 1,400  Level Houston Center
08:12AM 30.5192 -96.3400 164° South 181 208 4,100 2,400 Climbing Houston Center
08:13AM 30.4931 -96.2875 120° Southeast 219 252 6,100 2,340 Climbing Houston Center
08:14AM 30.4572 -96.2144 120° Southeast 251 289 8,700 1,920 Climbing Houston Center
08:15AM 30.4156 -96.1317 120° Southeast 281 323 10,000 600 Climbing Houston Center
08:16AM 30.3664 -96.0300 119° Southeast 350 403 10,000  Level Houston Center
08:17AM 30.3178 -95.9322 120° Southeast 353 406 10,000  Level Houston Center
08:18AM 30.2683 -95.8306 119° Southeast 358 412 10,000 -60 Level Houston Center
08:19AM 30.2175 -95.7281 120° Southeast 364 419 9,900 -60 Descending Houston Center
08:20AM 30.1628 -95.6164 120° Southeast 338 389 9,900 -840 Level Houston Center
08:21AM 30.1256 -95.5419 120° Southeast 273 314 8,200 -1,380 Descending Houston Center
08:22AM 30.1064 -95.4608 105° East 265 305 7,100 -1,080 Descending Houston Center
08:23AM 30.1061 -95.3786 90° East 256 295 6,100 -600 Descending Houston Center
08:24AM 30.1061 -95.2969 90° East 256 295 6,000 -960 Descending Houston Center
08:25AM 30.0958 -95.2261 100° East 219 252 4,200 -1,740 Descending Houston Center
08:26AM 30.0494 -95.1933 149° Southeast 213 245 2,500 -1,140 Descending Houston Center
08:27AM 30.0058 -95.2256 213° Southwest 212 244 1,900 -840 Descending Houston Center
08:28AM 29.9933 -95.2742 253° West 159 183 900 -840 Descending Houston Center
08:29AM 29.9944 -95.3192 272° West 144 166 200 -720 Descending Houston Center
08:31AM 29.9833 -95.3333 131° Southeast  Level FlightAware Approximate